sensor_id;sensor_type;location;lat;lon;timestamp;pressure;altitude;pressure_sealevel;temperature;humidity
44131;BME280;29792;48.726;9.248;2023-07-29T00:01:22;96516.44;;;18.47;100.00
44131;BME280;29792;48.726;9.248;2023-07-29T00:03:48;96512.59;;;18.43;100.00
44131;BME280;29792;48.726;9.248;2023-07-29T00:06:13;96503.38;;;18.41;100.00
44131;BME280;29792;48.726;9.248;2023-07-29T00:08:38;96500.19;;;18.39;100.00
44131;BME280;29792;48.726;9.248;2023-07-29T00:11:03;96498.41;;;18.39;100.00
44131;BME280;29792;48.726;9.248;2023-07-29T00:13:29;96502.41;;;18.42;100.00
44131;BME280;29792;48.726;9.248;2023-07-29T00:15:55;96501.41;;;18.43;100.00
44131;BME280;29792;48.726;9.248;2023-07-29T00:18:21;96497.84;;;18.44;100.00
44131;BME280;29792;48.726;9.248;2023-07-29T00:20:46;96502.22;;;18.43;100.00
44131;BME280;29792;48.726;9.248;2023-07-29T00:23:12;96499.63;;;18.43;100.00
44131;BME280;29792;48.726;9.248;2023-07-29T00:25:37;96498.66;;;18.44;100.00
44131;BME280;29792;48.726;9.248;2023-07-29T00:28:03;96498.66;;;18.44;100.00
44131;BME280;29792;48.726;9.248;2023-07-29T00:30:28;96497.66;;;18.45;100.00
44131;BME280;29792;48.726;9.248;2023-07-29T00:32:53;96484.69;;;18.45;100.00
44131;BME280;29792;48.726;9.248;2023-07-29T00:35:18;96498.47;;;18.46;100.00
44131;BME280;29792;48.726;9.248;2023-07-29T00:37:44;96497.47;;;18.47;100.00
44131;BME280;29792;48.726;9.248;2023-07-29T00:40:19;96485.50;;;18.46;100.00
44131;BME280;29792;48.726;9.248;2023-07-29T00:42:44;96488.91;;;18.46;100.00
44131;BME280;29792;48.726;9.248;2023-07-29T00:45:10;96488.91;;;18.46;100.00
44131;BME280;29792;48.726;9.248;2023-07-29T00:47:35;96477.53;;;18.47;100.00
44131;BME280;29792;48.726;9.248;2023-07-29T00:50:01;96483.53;;;18.48;100.00
44131;BME280;29792;48.726;9.248;2023-07-29T00:52:26;96487.69;;;18.49;100.00
44131;BME280;29792;48.726;9.248;2023-07-29T00:54:52;96486.94;;;18.48;100.00
44131;BME280;29792;48.726;9.248;2023-07-29T00:57:17;96483.53;;;18.48;100.00
44131;BME280;29792;48.726;9.248;2023-07-29T00:59:44;96486.94;;;18.48;100.00
44131;BME280;29792;48.726;9.248;2023-07-29T01:02:09;96485.31;;;18.47;100.00
44131;BME280;29792;48.726;9.248;2023-07-29T01:04:34;96490.50;;;18.47;100.00
44131;BME280;29792;48.726;9.248;2023-07-29T01:12:37;96475.31;;;18.44;100.00
44131;BME280;29792;48.726;9.248;2023-07-29T01:15:17;96472.72;;;18.44;100.00
44131;BME280;29792;48.726;9.248;2023-07-29T01:17:49;96465.91;;;18.43;100.00
44131;BME280;29792;48.726;9.248;2023-07-29T01:20:19;96464.47;;;18.41;100.00
44131;BME280;29792;48.726;9.248;2023-07-29T01:22:46;96468.09;;;18.40;100.00
44131;BME280;29792;48.726;9.248;2023-07-29T01:25:12;96470.84;;;18.38;100.00
44131;BME280;29792;48.726;9.248;2023-07-29T01:27:37;96472.03;;;18.36;100.00
44131;BME280;29792;48.726;9.248;2023-07-29T01:30:03;96468.81;;;18.34;100.00
44131;BME280;29792;48.726;9.248;2023-07-29T01:35:15;96461.22;;;18.32;100.00
44131;BME280;29792;48.726;9.248;2023-07-29T01:37:48;96467.19;;;18.33;100.00
44131;BME280;29792;48.726;9.248;2023-07-29T01:40:14;96470.59;;;18.33;100.00
44131;BME280;29792;48.726;9.248;2023-07-29T01:42:40;96476.59;;;18.34;100.00
44131;BME280;29792;48.726;9.248;2023-07-29T01:45:05;96473.00;;;18.35;100.00
44131;BME280;29792;48.726;9.248;2023-07-29T01:47:31;96470.41;;;18.35;100.00
44131;BME280;29792;48.726;9.248;2023-07-29T01:49:56;96473.63;;;18.37;100.00
44131;BME280;29792;48.726;9.248;2023-07-29T01:52:21;96472.81;;;18.36;100.00
44131;BME280;29792;48.726;9.248;2023-07-29T01:54:47;96474.00;;;18.34;100.00
44131;BME280;29792;48.726;9.248;2023-07-29T01:57:13;96470.81;;;18.32;100.00
44131;BME280;29792;48.726;9.248;2023-07-29T01:59:38;96458.81;;;18.30;100.00
44131;BME280;29792;48.726;9.248;2023-07-29T02:02:03;96456.59;;;18.27;100.00
44131;BME280;29792;48.726;9.248;2023-07-29T02:04:28;96456.59;;;18.27;100.00
44131;BME280;29792;48.726;9.248;2023-07-29T02:06:54;96448.81;;;18.27;100.00
44131;BME280;29792;48.726;9.248;2023-07-29T02:09:20;96448.00;;;18.27;100.00
44131;BME280;29792;48.726;9.248;2023-07-29T02:11:45;96448.97;;;18.26;100.00
44131;BME280;29792;48.726;9.248;2023-07-29T02:14:10;96440.41;;;18.25;100.00
44131;BME280;29792;48.726;9.248;2023-07-29T02:16:35;96439.59;;;18.25;100.00
44131;BME280;29792;48.726;9.248;2023-07-29T02:19:02;96441.59;;;18.23;100.00
44131;BME280;29792;48.726;9.248;2023-07-29T02:21:28;96433.19;;;18.21;100.00
44131;BME280;29792;48.726;9.248;2023-07-29T02:23:53;96431.56;;;18.20;100.00
44131;BME280;29792;48.726;9.248;2023-07-29T02:26:18;96428.81;;;18.21;100.00
44131;BME280;29792;48.726;9.248;2023-07-29T02:28:44;96441.94;;;18.20;100.00
44131;BME280;29792;48.726;9.248;2023-07-29T02:31:15;96433.19;;;18.21;100.00
44131;BME280;29792;48.726;9.248;2023-07-29T02:33:42;96429.16;;;18.18;100.00
44131;BME280;29792;48.726;9.248;2023-07-29T02:36:07;96435.16;;;18.19;100.00
44131;BME280;29792;48.726;9.248;2023-07-29T02:38:32;96423.00;;;18.19;100.00
44131;BME280;29792;48.726;9.248;2023-07-29T02:40:57;96429.97;;;18.19;100.00
44131;BME280;29792;48.726;9.248;2023-07-29T02:43:23;96438.53;;;18.19;100.00
44131;BME280;29792;48.726;9.248;2023-07-29T02:45:48;96428.19;;;18.19;100.00
44131;BME280;29792;48.726;9.248;2023-07-29T02:48:13;96428.19;;;18.19;100.00
44131;BME280;29792;48.726;9.248;2023-07-29T02:50:38;96433.38;;;18.19;100.00
44131;BME280;29792;48.726;9.248;2023-07-29T02:53:04;96438.38;;;18.21;100.00
44131;BME280;29792;48.726;9.248;2023-07-29T02:55:29;96426.38;;;18.20;100.00
44131;BME280;29792;48.726;9.248;2023-07-29T02:57:54;96421.19;;;18.20;100.00
44131;BME280;29792;48.726;9.248;2023-07-29T03:00:20;96418.78;;;18.18;100.00
44131;BME280;29792;48.726;9.248;2023-07-29T03:02:45;96420.75;;;18.16;100.00
44131;BME280;29792;48.726;9.248;2023-07-29T03:05:10;96414.34;;;18.12;100.00
44131;BME280;29792;48.726;9.248;2023-07-29T03:07:36;96419.88;;;18.09;100.00
44131;BME280;29792;48.726;9.248;2023-07-29T03:10:01;96412.50;;;18.06;100.00
44131;BME280;29792;48.726;9.248;2023-07-29T03:12:27;96413.47;;;18.05;100.00
44131;BME280;29792;48.726;9.248;2023-07-29T03:14:52;96410.09;;;18.05;100.00
44131;BME280;29792;48.726;9.248;2023-07-29T03:17:17;96411.69;;;18.06;100.00
44131;BME280;29792;48.726;9.248;2023-07-29T03:19:42;96405.53;;;18.07;100.00
44131;BME280;29792;48.726;9.248;2023-07-29T03:22:08;96405.53;;;18.07;100.00
44131;BME280;29792;48.726;9.248;2023-07-29T03:24:33;96404.53;;;18.08;100.00
44131;BME280;29792;48.726;9.248;2023-07-29T03:26:58;96403.53;;;18.09;100.00
44131;BME280;29792;48.726;9.248;2023-07-29T03:29:23;96381.22;;;18.08;100.00
44131;BME280;29792;48.726;9.248;2023-07-29T03:31:49;96383.59;;;18.09;100.00
44131;BME280;29792;48.726;9.248;2023-07-29T03:34:14;96385.22;;;18.10;100.00
44131;BME280;29792;48.726;9.248;2023-07-29T03:36:39;96391.19;;;18.11;100.00
44131;BME280;29792;48.726;9.248;2023-07-29T03:39:05;96386.00;;;18.11;100.00
44131;BME280;29792;48.726;9.248;2023-07-29T03:41:31;96398.78;;;18.12;100.00
44131;BME280;29792;48.726;9.248;2023-07-29T03:43:56;96391.81;;;18.13;100.00
44131;BME280;29792;48.726;9.248;2023-07-29T03:48:49;96391.66;;;18.14;100.00
44131;BME280;29792;48.726;9.248;2023-07-29T03:51:14;96389.06;;;18.14;100.00
44131;BME280;29792;48.726;9.248;2023-07-29T03:53:39;96393.25;;;18.15;100.00
44131;BME280;29792;48.726;9.248;2023-07-29T03:56:05;96394.81;;;18.16;100.00
44131;BME280;29792;48.726;9.248;2023-07-29T03:58:30;96391.47;;;18.16;100.00
44131;BME280;29792;48.726;9.248;2023-07-29T04:00:55;96390.44;;;18.17;100.00
44131;BME280;29792;48.726;9.248;2023-07-29T04:03:20;96396.44;;;18.17;100.00
44131;BME280;29792;48.726;9.248;2023-07-29T04:05:46;96402.25;;;18.19;100.00
44131;BME280;29792;48.726;9.248;2023-07-29T04:08:11;96393.47;;;18.20;100.00
44131;BME280;29792;48.726;9.248;2023-07-29T04:10:36;96389.91;;;18.21;100.00
44131;BME280;29792;48.726;9.248;2023-07-29T04:13:03;96391.53;;;18.22;100.00
44131;BME280;29792;48.726;9.248;2023-07-29T04:15:28;96394.72;;;18.24;100.00
44131;BME280;29792;48.726;9.248;2023-07-29T04:17:53;96388.53;;;18.25;100.00
44131;BME280;29792;48.726;9.248;2023-07-29T04:20:18;96392.72;;;18.26;100.00
44131;BME280;29792;48.726;9.248;2023-07-29T04:22:44;96384.97;;;18.26;100.00
44131;BME280;29792;48.726;9.248;2023-07-29T04:25:09;96394.16;;;18.29;100.00
44131;BME280;29792;48.726;9.248;2023-07-29T04:27:34;96391.41;;;18.30;100.00
44131;BME280;29792;48.726;9.248;2023-07-29T04:29:59;96388.81;;;18.30;100.00
44131;BME280;29792;48.726;9.248;2023-07-29T04:32:25;96393.81;;;18.32;100.00
44131;BME280;29792;48.726;9.248;2023-07-29T04:34:50;96400.56;;;18.33;100.00
44131;BME280;29792;48.726;9.248;2023-07-29T04:37:16;96403.78;;;18.35;100.00
44131;BME280;29792;48.726;9.248;2023-07-29T04:39:41;96401.00;;;18.37;100.00
44131;BME280;29792;48.726;9.248;2023-07-29T04:42:06;96419.00;;;18.38;100.00
44131;BME280;29792;48.726;9.248;2023-07-29T04:44:31;96414.44;;;18.40;100.00
44131;BME280;29792;48.726;9.248;2023-07-29T04:46:57;96419.41;;;18.42;100.00
44131;BME280;29792;48.726;9.248;2023-07-29T04:49:22;96409.03;;;18.42;100.00
44131;BME280;29792;48.726;9.248;2023-07-29T04:51:47;96411.44;;;18.43;100.00
44131;BME280;29792;48.726;9.248;2023-07-29T04:54:12;96411.63;;;18.42;100.00
44131;BME280;29792;48.726;9.248;2023-07-29T04:56:38;96414.22;;;18.42;100.00
44131;BME280;29792;48.726;9.248;2023-07-29T04:59:03;96418.41;;;18.43;100.00
44131;BME280;29792;48.726;9.248;2023-07-29T05:01:28;96424.41;;;18.43;100.00
44131;BME280;29792;48.726;9.248;2023-07-29T05:03:54;96431.03;;;18.46;100.00
44131;BME280;29792;48.726;9.248;2023-07-29T05:06:19;96430.22;;;18.45;100.00
44131;BME280;29792;48.726;9.248;2023-07-29T05:08:44;96429.22;;;18.46;100.00
44131;BME280;29792;48.726;9.248;2023-07-29T05:11:10;96426.63;;;18.46;100.00
44131;BME280;29792;48.726;9.248;2023-07-29T05:13:36;96412.06;;;18.45;100.00
44131;BME280;29792;48.726;9.248;2023-07-29T05:16:01;96411.09;;;18.46;100.00
44131;BME280;29792;48.726;9.248;2023-07-29T05:18:26;96417.88;;;18.47;100.00
44131;BME280;29792;48.726;9.248;2023-07-29T05:20:51;96414.66;;;18.45;100.00
44131;BME280;29792;48.726;9.248;2023-07-29T05:23:17;96408.66;;;18.45;100.00
44131;BME280;29792;48.726;9.248;2023-07-29T05:25:42;96413.03;;;18.44;100.00
44131;BME280;29792;48.726;9.248;2023-07-29T05:28:07;96412.59;;;18.41;100.00
44131;BME280;29792;48.726;9.248;2023-07-29T05:30:33;96405.03;;;18.39;100.00
44131;BME280;29792;48.726;9.248;2023-07-29T05:33:03;96413.19;;;18.36;100.00
44131;BME280;29792;48.726;9.248;2023-07-29T05:35:30;96419.53;;;18.34;100.00
44131;BME280;29792;48.726;9.248;2023-07-29T05:37:55;96412.72;;;18.33;100.00
44131;BME280;29792;48.726;9.248;2023-07-29T05:40:20;96412.94;;;18.31;100.00
44131;BME280;29792;48.726;9.248;2023-07-29T05:42:45;96409.53;;;18.30;100.00
44131;BME280;29792;48.726;9.248;2023-07-29T05:45:11;96410.94;;;18.33;100.00
44131;BME280;29792;48.726;9.248;2023-07-29T05:47:36;96410.94;;;18.33;100.00
44131;BME280;29792;48.726;9.248;2023-07-29T05:50:02;96409.16;;;18.34;100.00
44131;BME280;29792;48.726;9.248;2023-07-29T05:52:32;96402.19;;;18.34;100.00
44131;BME280;29792;48.726;9.248;2023-07-29T05:54:57;96405.03;;;18.39;100.00
44131;BME280;29792;48.726;9.248;2023-07-29T05:57:22;96406.44;;;18.42;100.00
44131;BME280;29792;48.726;9.248;2023-07-29T05:59:48;96408.66;;;18.45;100.00
44131;BME280;29792;48.726;9.248;2023-07-29T06:02:13;96401.13;;;18.50;100.00
44131;BME280;29792;48.726;9.248;2023-07-29T06:04:38;96399.75;;;18.54;100.00
44131;BME280;29792;48.726;9.248;2023-07-29T06:07:04;96400.38;;;18.56;100.00
44131;BME280;29792;48.726;9.248;2023-07-29T06:09:30;96397.44;;;18.59;100.00
44131;BME280;29792;48.726;9.248;2023-07-29T06:11:55;96389.28;;;18.62;100.00
44131;BME280;29792;48.726;9.248;2023-07-29T06:14:20;96402.47;;;18.67;100.00
44131;BME280;29792;48.726;9.248;2023-07-29T06:16:45;96402.13;;;18.70;100.00
44131;BME280;29792;48.726;9.248;2023-07-29T06:19:11;96397.34;;;18.74;100.00
44131;BME280;29792;48.726;9.248;2023-07-29T06:21:36;96409.75;;;18.78;100.00
44131;BME280;29792;48.726;9.248;2023-07-29T06:24:01;96416.97;;;18.83;100.00
44131;BME280;29792;48.726;9.248;2023-07-29T06:26:27;96413.03;;;18.87;100.00
44131;BME280;29792;48.726;9.248;2023-07-29T06:28:53;96416.03;;;18.90;100.00
44131;BME280;29792;48.726;9.248;2023-07-29T06:31:18;96424.25;;;18.94;100.00
44131;BME280;29792;48.726;9.248;2023-07-29T06:33:43;96419.47;;;18.97;100.00
44131;BME280;29792;48.726;9.248;2023-07-29T06:36:08;96415.50;;;19.01;100.00
44131;BME280;29792;48.726;9.248;2023-07-29T06:38:34;96419.53;;;19.04;100.00
44131;BME280;29792;48.726;9.248;2023-07-29T06:40:59;96411.53;;;19.05;100.00
44131;BME280;29792;48.726;9.248;2023-07-29T06:43:24;96419.94;;;19.08;100.00
44131;BME280;29792;48.726;9.248;2023-07-29T06:45:50;96427.97;;;19.13;100.00
44131;BME280;29792;48.726;9.248;2023-07-29T06:48:15;96425.97;;;19.15;100.00
44131;BME280;29792;48.726;9.248;2023-07-29T06:50:40;96420.78;;;19.15;100.00
44131;BME280;29792;48.726;9.248;2023-07-29T06:53:06;96436.16;;;19.16;100.00
44131;BME280;29792;48.726;9.248;2023-07-29T06:55:31;96436.34;;;19.15;100.00
44131;BME280;29792;48.726;9.248;2023-07-29T06:57:56;96432.97;;;19.14;100.00
44131;BME280;29792;48.726;9.248;2023-07-29T07:00:21;96441.38;;;19.16;100.00
44131;BME280;29792;48.726;9.248;2023-07-29T07:02:47;96437.78;;;19.17;100.00
44131;BME280;29792;48.726;9.248;2023-07-29T07:05:12;96447.97;;;19.19;100.00
44131;BME280;29792;48.726;9.248;2023-07-29T07:07:37;96458.56;;;19.17;100.00
44131;BME280;29792;48.726;9.248;2023-07-29T07:10:03;96459.53;;;19.16;100.00
44131;BME280;29792;48.726;9.248;2023-07-29T07:12:28;96468.13;;;19.17;100.00
44131;BME280;29792;48.726;9.248;2023-07-29T07:14:53;96472.72;;;19.15;100.00
44131;BME280;29792;48.726;9.248;2023-07-29T07:17:19;96477.50;;;19.11;100.00
44131;BME280;29792;48.726;9.248;2023-07-29T07:19:44;96463.09;;;19.09;100.00
44131;BME280;29792;48.726;9.248;2023-07-29T07:22:09;96461.47;;;19.08;100.00
44131;BME280;29792;48.726;9.248;2023-07-29T07:24:34;96452.28;;;19.05;100.00
44131;BME280;29792;48.726;9.248;2023-07-29T07:27:00;96450.88;;;19.02;100.00
44131;BME280;29792;48.726;9.248;2023-07-29T07:29:25;96445.88;;;19.01;100.00
44131;BME280;29792;48.726;9.248;2023-07-29T07:31:52;96455.44;;;19.00;100.00
44131;BME280;29792;48.726;9.248;2023-07-29T07:34:18;96460.81;;;18.99;100.00
44131;BME280;29792;48.726;9.248;2023-07-29T07:36:44;96462.44;;;19.00;100.00
44131;BME280;29792;48.726;9.248;2023-07-29T07:39:09;96454.47;;;19.01;100.00
44131;BME280;29792;48.726;9.248;2023-07-29T07:41:34;96455.06;;;19.03;100.00
44131;BME280;29792;48.726;9.248;2023-07-29T07:44:00;96446.09;;;19.06;100.00
44131;BME280;29792;48.726;9.248;2023-07-29T07:46:26;96456.91;;;19.10;100.00
44131;BME280;29792;48.726;9.248;2023-07-29T07:48:51;96456.72;;;19.11;100.00
44131;BME280;29792;48.726;9.248;2023-07-29T07:51:16;96463.31;;;19.14;100.00
44131;BME280;29792;48.726;9.248;2023-07-29T07:53:42;96466.94;;;19.13;100.00
44131;BME280;29792;48.726;9.248;2023-07-29T07:56:07;96456.53;;;19.13;100.00
44131;BME280;29792;48.726;9.248;2023-07-29T07:58:33;96458.13;;;19.14;100.00
44131;BME280;29792;48.726;9.248;2023-07-29T08:01:05;96451.53;;;19.11;100.00
44131;BME280;29792;48.726;9.248;2023-07-29T08:03:31;96456.13;;;19.16;100.00
44131;BME280;29792;48.726;9.248;2023-07-29T08:05:57;96460.97;;;19.19;100.00
44131;BME280;29792;48.726;9.248;2023-07-29T08:08:22;96461.59;;;19.21;100.00
44131;BME280;29792;48.726;9.248;2023-07-29T08:10:47;96462.97;;;19.23;100.00
44131;BME280;29792;48.726;9.248;2023-07-29T08:13:12;96472.81;;;19.28;100.00
44131;BME280;29792;48.726;9.248;2023-07-29T08:15:38;96469.63;;;19.32;100.00
44131;BME280;29792;48.726;9.248;2023-07-29T08:18:03;96469.88;;;19.37;100.00
44131;BME280;29792;48.726;9.248;2023-07-29T08:20:28;96471.72;;;19.43;100.00
44131;BME280;29792;48.726;9.248;2023-07-29T08:22:53;96472.75;;;19.49;100.00
44131;BME280;29792;48.726;9.248;2023-07-29T08:25:19;96482.97;;;19.51;100.00
44131;BME280;29792;48.726;9.248;2023-07-29T08:27:44;96466.22;;;19.53;100.00
44131;BME280;29792;48.726;9.248;2023-07-29T08:30:09;96468.03;;;19.59;100.00
44131;BME280;29792;48.726;9.248;2023-07-29T08:32:35;96469.66;;;19.67;100.00
44131;BME280;29792;48.726;9.248;2023-07-29T08:35:00;96472.28;;;19.73;100.00
44131;BME280;29792;48.726;9.248;2023-07-29T08:37:25;96481.09;;;19.79;100.00
44131;BME280;29792;48.726;9.248;2023-07-29T08:39:52;96475.34;;;19.84;100.00
44131;BME280;29792;48.726;9.248;2023-07-29T08:42:19;96476.16;;;19.91;100.00
44131;BME280;29792;48.726;9.248;2023-07-29T08:44:49;96476.78;;;19.99;100.00
44131;BME280;29792;48.726;9.248;2023-07-29T08:47:14;96467.22;;;20.06;100.00
44131;BME280;29792;48.726;9.248;2023-07-29T08:49:40;96475.03;;;20.13;100.00
44131;BME280;29792;48.726;9.248;2023-07-29T08:52:07;96470.47;;;20.22;100.00
44131;BME280;29792;48.726;9.248;2023-07-29T08:54:32;96473.28;;;20.27;100.00
44131;BME280;29792;48.726;9.248;2023-07-29T08:56:58;96474.13;;;20.34;100.00
44131;BME280;29792;48.726;9.248;2023-07-29T08:59:25;96481.94;;;20.40;100.00
44131;BME280;29792;48.726;9.248;2023-07-29T09:01:51;96490.19;;;20.50;100.00
44131;BME280;29792;48.726;9.248;2023-07-29T09:04:20;96472.16;;;20.62;100.00
44131;BME280;29792;48.726;9.248;2023-07-29T09:06:47;96474.19;;;20.73;100.00
44131;BME280;29792;48.726;9.248;2023-07-29T09:09:14;96482.19;;;20.85;100.00
44131;BME280;29792;48.726;9.248;2023-07-29T09:11:39;96479.00;;;20.89;100.00
44131;BME280;29792;48.726;9.248;2023-07-29T09:14:04;96469.59;;;20.88;100.00
44131;BME280;29792;48.726;9.248;2023-07-29T09:16:30;96469.97;;;20.92;100.00
44131;BME280;29792;48.726;9.248;2023-07-29T09:18:55;96470.19;;;20.97;100.00
44131;BME280;29792;48.726;9.248;2023-07-29T09:21:23;96461.94;;;21.00;100.00
44131;BME280;29792;48.726;9.248;2023-07-29T09:23:50;96463.78;;;21.06;100.00
44131;BME280;29792;48.726;9.248;2023-07-29T09:26:25;96459.34;;;21.13;100.00
44131;BME280;29792;48.726;9.248;2023-07-29T09:28:54;96460.34;;;21.25;100.00
44131;BME280;29792;48.726;9.248;2023-07-29T09:31:23;96457.75;;;21.39;100.00
44131;BME280;29792;48.726;9.248;2023-07-29T09:33:48;96444.69;;;21.45;100.00
44131;BME280;29792;48.726;9.248;2023-07-29T09:36:14;96448.69;;;21.48;100.00
44131;BME280;29792;48.726;9.248;2023-07-29T09:38:39;96444.06;;;21.50;100.00
44131;BME280;29792;48.726;9.248;2023-07-29T09:41:05;96444.66;;;21.52;100.00
44131;BME280;29792;48.726;9.248;2023-07-29T09:43:32;96448.25;;;21.57;100.00
44131;BME280;29792;48.726;9.248;2023-07-29T09:46:02;96455.66;;;21.60;100.00
44131;BME280;29792;48.726;9.248;2023-07-29T09:48:28;96457.06;;;21.63;100.00
44131;BME280;29792;48.726;9.248;2023-07-29T09:50:57;96469.69;;;21.66;100.00
44131;BME280;29792;48.726;9.248;2023-07-29T09:53:22;96454.25;;;21.71;100.00
44131;BME280;29792;48.726;9.248;2023-07-29T09:55:48;96455.22;;;21.77;100.00
44131;BME280;29792;48.726;9.248;2023-07-29T09:58:19;96445.56;;;21.84;100.00
44131;BME280;29792;48.726;9.248;2023-07-29T10:00:45;96446.75;;;21.88;100.00
44131;BME280;29792;48.726;9.248;2023-07-29T10:03:11;96442.50;;;21.93;100.00
44131;BME280;29792;48.726;9.248;2023-07-29T10:05:37;96443.69;;;21.97;100.00
44131;BME280;29792;48.726;9.248;2023-07-29T10:08:04;96441.28;;;22.02;100.00
44131;BME280;29792;48.726;9.248;2023-07-29T10:10:29;96441.66;;;22.13;100.00
44131;BME280;29792;48.726;9.248;2023-07-29T10:12:56;96440.56;;;22.27;100.00
44131;BME280;29792;48.726;9.248;2023-07-29T10:15:21;96438.28;;;22.37;100.00
44131;BME280;29792;48.726;9.248;2023-07-29T10:17:47;96434.63;;;22.44;100.00
44131;BME280;29792;48.726;9.248;2023-07-29T10:20:13;96438.78;;;22.52;100.00
44131;BME280;29792;48.726;9.248;2023-07-29T10:22:42;96438.72;;;22.59;100.00
44131;BME280;29792;48.726;9.248;2023-07-29T10:27:47;96435.44;;;22.70;100.00
44131;BME280;29792;48.726;9.248;2023-07-29T10:30:13;96435.41;;;22.76;100.00
44131;BME280;29792;48.726;9.248;2023-07-29T10:32:41;96430.50;;;22.87;100.00
44131;BME280;29792;48.726;9.248;2023-07-29T10:35:08;96424.78;;;22.96;100.00
44131;BME280;29792;48.726;9.248;2023-07-29T10:37:34;96435.13;;;23.09;100.00
44131;BME280;29792;48.726;9.248;2023-07-29T10:39:59;96430.16;;;23.26;100.00
44131;BME280;29792;48.726;9.248;2023-07-29T10:42:24;96429.56;;;23.42;100.00
44131;BME280;29792;48.726;9.248;2023-07-29T10:44:52;96422.47;;;23.49;100.00
44131;BME280;29792;48.726;9.248;2023-07-29T10:49:50;96429.81;;;23.59;100.00
44131;BME280;29792;48.726;9.248;2023-07-29T10:52:30;96429.59;;;23.61;100.00
44131;BME280;29792;48.726;9.248;2023-07-29T10:54:56;96419.72;;;23.63;100.00
44131;BME280;29792;48.726;9.248;2023-07-29T10:57:38;96420.22;;;23.71;100.00
44131;BME280;29792;48.726;9.248;2023-07-29T11:00:06;96420.63;;;23.86;100.00
44131;BME280;29792;48.726;9.248;2023-07-29T11:02:35;96411.03;;;23.99;100.00
44131;BME280;29792;48.726;9.248;2023-07-29T11:05:15;96420.50;;;24.11;100.00
44131;BME280;29792;48.726;9.248;2023-07-29T11:07:45;96420.59;;;24.23;100.00
44131;BME280;29792;48.726;9.248;2023-07-29T11:10:12;96423.75;;;24.25;100.00
44131;BME280;29792;48.726;9.248;2023-07-29T11:12:38;96425.34;;;24.26;99.78
44131;BME280;29792;48.726;9.248;2023-07-29T11:17:35;96434.28;;;24.37;97.45
44131;BME280;29792;48.726;9.248;2023-07-29T11:20:02;96436.78;;;24.43;97.55
44131;BME280;29792;48.726;9.248;2023-07-29T11:22:28;96431.00;;;24.53;97.05
44131;BME280;29792;48.726;9.248;2023-07-29T11:24:54;96434.31;;;24.60;96.05
44131;BME280;29792;48.726;9.248;2023-07-29T11:27:19;96435.72;;;24.62;93.83
44131;BME280;29792;48.726;9.248;2023-07-29T11:29:44;96430.81;;;24.66;94.01
44131;BME280;29792;48.726;9.248;2023-07-29T11:32:09;96429.13;;;24.71;93.83
44131;BME280;29792;48.726;9.248;2023-07-29T11:34:35;96438.31;;;24.74;92.24
44131;BME280;29792;48.726;9.248;2023-07-29T11:37:00;96440.72;;;24.76;92.55
44131;BME280;29792;48.726;9.248;2023-07-29T11:39:25;96431.63;;;24.78;92.52
44131;BME280;29792;48.726;9.248;2023-07-29T11:41:51;96430.25;;;24.76;90.43
44131;BME280;29792;48.726;9.248;2023-07-29T11:44:17;96433.09;;;24.74;91.39
44131;BME280;29792;48.726;9.248;2023-07-29T11:46:43;96426.25;;;24.73;91.38
44131;BME280;29792;48.726;9.248;2023-07-29T11:49:08;96422.28;;;24.70;91.50
44131;BME280;29792;48.726;9.248;2023-07-29T11:51:34;96427.97;;;24.67;90.85
44131;BME280;29792;48.726;9.248;2023-07-29T11:54:00;96424.75;;;24.65;89.71
44131;BME280;29792;48.726;9.248;2023-07-29T11:56:25;96411.34;;;24.62;88.80
44131;BME280;29792;48.726;9.248;2023-07-29T11:58:51;96420.44;;;24.59;87.39
44131;BME280;29792;48.726;9.248;2023-07-29T12:01:16;96427.50;;;24.59;87.31
44131;BME280;29792;48.726;9.248;2023-07-29T12:03:42;96419.03;;;24.57;87.72
44131;BME280;29792;48.726;9.248;2023-07-29T12:06:08;96424.53;;;24.55;87.00
44131;BME280;29792;48.726;9.248;2023-07-29T12:08:33;96422.94;;;24.54;86.72
44131;BME280;29792;48.726;9.248;2023-07-29T12:10:59;96415.28;;;24.53;83.79
44131;BME280;29792;48.726;9.248;2023-07-29T12:13:24;96414.13;;;24.49;82.05
44131;BME280;29792;48.726;9.248;2023-07-29T12:15:50;96415.41;;;24.46;82.83
44131;BME280;29792;48.726;9.248;2023-07-29T12:18:15;96409.00;;;24.42;81.58
44131;BME280;29792;48.726;9.248;2023-07-29T12:20:41;96421.28;;;24.42;82.33
44131;BME280;29792;48.726;9.248;2023-07-29T12:23:06;96409.22;;;24.41;80.99
44131;BME280;29792;48.726;9.248;2023-07-29T12:25:33;96415.50;;;24.40;79.94
44131;BME280;29792;48.726;9.248;2023-07-29T12:28:05;96412.63;;;24.41;79.75
44131;BME280;29792;48.726;9.248;2023-07-29T12:30:30;96418.69;;;24.42;79.41
44131;BME280;29792;48.726;9.248;2023-07-29T12:32:55;96413.44;;;24.42;78.77
44131;BME280;29792;48.726;9.248;2023-07-29T12:35:21;96411.84;;;24.41;78.18
44131;BME280;29792;48.726;9.248;2023-07-29T12:37:46;96409.69;;;24.38;77.23
44131;BME280;29792;48.726;9.248;2023-07-29T12:40:21;96406.50;;;24.36;76.60
44131;BME280;29792;48.726;9.248;2023-07-29T12:42:48;96414.34;;;24.36;77.02
44131;BME280;29792;48.726;9.248;2023-07-29T12:45:15;96410.72;;;24.37;76.63
44131;BME280;29792;48.726;9.248;2023-07-29T12:47:40;96412.41;;;24.43;77.48
44131;BME280;29792;48.726;9.248;2023-07-29T12:50:06;96413.69;;;24.52;77.68
44131;BME280;29792;48.726;9.248;2023-07-29T12:52:31;96407.69;;;24.63;78.94
44131;BME280;29792;48.726;9.248;2023-07-29T12:54:56;96407.34;;;24.71;77.75
44131;BME280;29792;48.726;9.248;2023-07-29T12:57:22;96415.91;;;24.78;76.42
44131;BME280;29792;48.726;9.248;2023-07-29T12:59:47;96418.19;;;24.86;75.88
44131;BME280;29792;48.726;9.248;2023-07-29T13:02:12;96411.25;;;24.92;74.57
44131;BME280;29792;48.726;9.248;2023-07-29T13:04:37;96410.34;;;24.98;74.04